Inicio METAR Ruta Wind Satelite

Informe Meteorológico

Fecha: 2024/06/18 19:53:52 Local
2024.06.19 00:53 UTC


Operación:
SKAS 190000Z 00000KT 9999 SCT050 27/24 Q1007 =